sensor_id;sensor_type;location;lat;lon;timestamp;P1;durP1;ratioP1;P2;durP2;ratioP2
71639;SDS011;60912;48.968;10.124;2023-03-01T00:00:24;20.40;;;11.27;;
71639;SDS011;60912;48.968;10.124;2023-03-01T00:02:50;20.50;;;11.13;;
71639;SDS011;60912;48.968;10.124;2023-03-01T00:05:15;22.20;;;11.13;;
71639;SDS011;60912;48.968;10.124;2023-03-01T00:07:44;20.33;;;10.70;;
71639;SDS011;60912;48.968;10.124;2023-03-01T00:10:09;19.47;;;10.90;;
71639;SDS011;60912;48.968;10.124;2023-03-01T00:15:40;24.02;;;11.52;;
71639;SDS011;60912;48.968;10.124;2023-03-01T00:18:06;20.80;;;11.18;;
71639;SDS011;60912;48.968;10.124;2023-03-01T00:20:33;20.15;;;11.30;;
71639;SDS011;60912;48.968;10.124;2023-03-01T00:22:59;21.37;;;11.03;;
71639;SDS011;60912;48.968;10.124;2023-03-01T00:25:25;21.98;;;11.13;;
71639;SDS011;60912;48.968;10.124;2023-03-01T00:27:53;22.23;;;12.00;;
71639;SDS011;60912;48.968;10.124;2023-03-01T00:30:27;21.50;;;11.13;;
71639;SDS011;60912;48.968;10.124;2023-03-01T00:32:52;20.55;;;10.20;;
71639;SDS011;60912;48.968;10.124;2023-03-01T00:35:25;24.43;;;10.70;;
71639;SDS011;60912;48.968;10.124;2023-03-01T00:38:00;21.85;;;11.25;;
71639;SDS011;60912;48.968;10.124;2023-03-01T00:40:26;22.97;;;11.43;;
71639;SDS011;60912;48.968;10.124;2023-03-01T00:42:53;22.73;;;11.95;;
71639;SDS011;60912;48.968;10.124;2023-03-01T00:45:32;25.17;;;12.23;;
71639;SDS011;60912;48.968;10.124;2023-03-01T00:48:03;22.50;;;11.45;;
71639;SDS011;60912;48.968;10.124;2023-03-01T00:50:36;23.10;;;10.77;;
71639;SDS011;60912;48.968;10.124;2023-03-01T00:53:07;21.73;;;10.67;;
71639;SDS011;60912;48.968;10.124;2023-03-01T00:55:33;23.77;;;10.55;;
71639;SDS011;60912;48.968;10.124;2023-03-01T00:57:58;22.43;;;10.73;;
71639;SDS011;60912;48.968;10.124;2023-03-01T01:00:29;21.40;;;10.70;;
71639;SDS011;60912;48.968;10.124;2023-03-01T01:03:21;21.13;;;10.85;;
71639;SDS011;60912;48.968;10.124;2023-03-01T01:05:47;18.80;;;10.93;;
71639;SDS011;60912;48.968;10.124;2023-03-01T01:08:12;19.23;;;10.77;;
71639;SDS011;60912;48.968;10.124;2023-03-01T01:10:46;22.30;;;11.23;;
71639;SDS011;60912;48.968;10.124;2023-03-01T01:13:12;19.70;;;10.00;;
71639;SDS011;60912;48.968;10.124;2023-03-01T01:15:44;22.43;;;10.63;;
71639;SDS011;60912;48.968;10.124;2023-03-01T01:18:10;24.48;;;10.73;;
71639;SDS011;60912;48.968;10.124;2023-03-01T01:20:43;24.83;;;12.48;;
71639;SDS011;60912;48.968;10.124;2023-03-01T01:23:08;18.70;;;10.33;;
71639;SDS011;60912;48.968;10.124;2023-03-01T01:25:39;21.20;;;10.65;;
71639;SDS011;60912;48.968;10.124;2023-03-01T01:28:23;20.87;;;11.57;;
71639;SDS011;60912;48.968;10.124;2023-03-01T01:31:02;22.02;;;11.55;;
71639;SDS011;60912;48.968;10.124;2023-03-01T01:34:07;23.25;;;11.20;;
71639;SDS011;60912;48.968;10.124;2023-03-01T01:36:48;24.95;;;11.60;;
71639;SDS011;60912;48.968;10.124;2023-03-01T01:39:31;13.18;;;5.63;;
71639;SDS011;60912;48.968;10.124;2023-03-01T01:42:18;22.93;;;10.97;;
71639;SDS011;60912;48.968;10.124;2023-03-01T01:48:10;22.67;;;11.77;;
71639;SDS011;60912;48.968;10.124;2023-03-01T01:51:18;19.55;;;9.88;;
71639;SDS011;60912;48.968;10.124;2023-03-01T01:57:56;24.07;;;10.67;;
71639;SDS011;60912;48.968;10.124;2023-03-01T02:01:00;21.55;;;11.40;;
71639;SDS011;60912;48.968;10.124;2023-03-01T02:03:42;24.48;;;12.45;;
71639;SDS011;60912;48.968;10.124;2023-03-01T02:12:23;20.50;;;9.97;;
71639;SDS011;60912;48.968;10.124;2023-03-01T02:15:10;22.85;;;10.85;;
71639;SDS011;60912;48.968;10.124;2023-03-01T02:17:45;22.25;;;10.27;;
71639;SDS011;60912;48.968;10.124;2023-03-01T02:23:04;20.67;;;10.43;;
71639;SDS011;60912;48.968;10.124;2023-03-01T02:31:23;21.88;;;10.82;;
71639;SDS011;60912;48.968;10.124;2023-03-01T02:34:17;22.20;;;11.60;;
71639;SDS011;60912;48.968;10.124;2023-03-01T02:52:21;24.67;;;11.90;;
71639;SDS011;60912;48.968;10.124;2023-03-01T02:55:17;21.10;;;11.30;;
71639;SDS011;60912;48.968;10.124;2023-03-01T02:58:21;22.90;;;12.27;;
71639;SDS011;60912;48.968;10.124;2023-03-01T03:00:50;23.75;;;11.85;;
71639;SDS011;60912;48.968;10.124;2023-03-01T03:07:07;24.35;;;12.00;;
71639;SDS011;60912;48.968;10.124;2023-03-01T03:13:16;20.80;;;10.57;;
71639;SDS011;60912;48.968;10.124;2023-03-01T03:15:43;22.73;;;12.63;;
71639;SDS011;60912;48.968;10.124;2023-03-01T03:18:20;21.92;;;10.88;;
71639;SDS011;60912;48.968;10.124;2023-03-01T03:28:05;25.08;;;11.45;;
71639;SDS011;60912;48.968;10.124;2023-03-01T03:30:47;24.02;;;11.98;;
71639;SDS011;60912;48.968;10.124;2023-03-01T03:33:32;22.70;;;11.52;;
71639;SDS011;60912;48.968;10.124;2023-03-01T03:36:07;26.70;;;11.40;;
71639;SDS011;60912;48.968;10.124;2023-03-01T03:39:07;20.70;;;11.17;;
71639;SDS011;60912;48.968;10.124;2023-03-01T03:41:34;24.48;;;12.60;;
71639;SDS011;60912;48.968;10.124;2023-03-01T03:44:07;24.08;;;12.00;;
71639;SDS011;60912;48.968;10.124;2023-03-01T03:53:58;23.50;;;11.33;;
71639;SDS011;60912;48.968;10.124;2023-03-01T03:56:32;26.63;;;13.73;;
71639;SDS011;60912;48.968;10.124;2023-03-01T03:59:06;23.70;;;12.83;;
71639;SDS011;60912;48.968;10.124;2023-03-01T04:01:35;25.45;;;11.52;;
71639;SDS011;60912;48.968;10.124;2023-03-01T04:04:03;24.67;;;12.20;;
71639;SDS011;60912;48.968;10.124;2023-03-01T04:07:03;23.42;;;11.85;;
71639;SDS011;60912;48.968;10.124;2023-03-01T04:12:23;26.17;;;12.53;;
71639;SDS011;60912;48.968;10.124;2023-03-01T04:17:49;24.45;;;11.82;;
71639;SDS011;60912;48.968;10.124;2023-03-01T04:20:52;26.10;;;12.25;;
71639;SDS011;60912;48.968;10.124;2023-03-01T04:23:52;22.40;;;12.85;;
71639;SDS011;60912;48.968;10.124;2023-03-01T04:26:17;27.03;;;13.53;;
71639;SDS011;60912;48.968;10.124;2023-03-01T04:29:20;22.98;;;11.85;;
71639;SDS011;60912;48.968;10.124;2023-03-01T04:31:53;25.13;;;13.98;;
71639;SDS011;60912;48.968;10.124;2023-03-01T04:34:32;27.87;;;12.10;;
71639;SDS011;60912;48.968;10.124;2023-03-01T04:40:21;25.02;;;11.93;;
71639;SDS011;60912;48.968;10.124;2023-03-01T04:46:41;28.50;;;13.73;;
71639;SDS011;60912;48.968;10.124;2023-03-01T04:52:55;24.85;;;11.02;;
71639;SDS011;60912;48.968;10.124;2023-03-01T04:55:33;24.23;;;12.07;;
71639;SDS011;60912;48.968;10.124;2023-03-01T04:58:52;24.17;;;11.30;;
71639;SDS011;60912;48.968;10.124;2023-03-01T05:07:15;25.73;;;12.82;;
71639;SDS011;60912;48.968;10.124;2023-03-01T05:09:46;27.98;;;14.00;;
71639;SDS011;60912;48.968;10.124;2023-03-01T05:12:24;25.75;;;12.20;;
71639;SDS011;60912;48.968;10.124;2023-03-01T05:14:52;30.17;;;13.13;;
71639;SDS011;60912;48.968;10.124;2023-03-01T05:17:21;26.23;;;11.70;;
71639;SDS011;60912;48.968;10.124;2023-03-01T05:19:55;29.70;;;16.00;;
71639;SDS011;60912;48.968;10.124;2023-03-01T05:22:26;32.63;;;12.40;;
71639;SDS011;60912;48.968;10.124;2023-03-01T05:24:53;27.67;;;13.93;;
71639;SDS011;60912;48.968;10.124;2023-03-01T05:27:19;29.10;;;12.25;;
71639;SDS011;60912;48.968;10.124;2023-03-01T05:29:49;30.25;;;12.85;;
71639;SDS011;60912;48.968;10.124;2023-03-01T05:32:15;25.35;;;13.13;;
71639;SDS011;60912;48.968;10.124;2023-03-01T05:34:46;25.63;;;10.77;;
71639;SDS011;60912;48.968;10.124;2023-03-01T05:37:12;26.83;;;13.43;;
71639;SDS011;60912;48.968;10.124;2023-03-01T05:39:41;27.50;;;13.00;;
71639;SDS011;60912;48.968;10.124;2023-03-01T05:45:26;27.60;;;12.67;;
71639;SDS011;60912;48.968;10.124;2023-03-01T05:48:24;27.75;;;10.90;;
71639;SDS011;60912;48.968;10.124;2023-03-01T05:52:12;25.50;;;10.90;;
71639;SDS011;60912;48.968;10.124;2023-03-01T05:55:05;29.00;;;12.63;;
71639;SDS011;60912;48.968;10.124;2023-03-01T05:57:48;25.92;;;12.10;;
71639;SDS011;60912;48.968;10.124;2023-03-01T06:00:40;25.30;;;11.97;;
71639;SDS011;60912;48.968;10.124;2023-03-01T06:03:53;27.63;;;12.95;;
71639;SDS011;60912;48.968;10.124;2023-03-01T06:06:56;28.58;;;12.60;;
71639;SDS011;60912;48.968;10.124;2023-03-01T06:10:03;27.67;;;12.75;;
71639;SDS011;60912;48.968;10.124;2023-03-01T06:13:05;28.95;;;12.48;;
71639;SDS011;60912;48.968;10.124;2023-03-01T06:18:59;25.88;;;11.48;;
71639;SDS011;60912;48.968;10.124;2023-03-01T06:21:41;31.55;;;13.60;;
71639;SDS011;60912;48.968;10.124;2023-03-01T06:24:07;30.20;;;13.13;;
71639;SDS011;60912;48.968;10.124;2023-03-01T06:26:54;33.47;;;14.15;;
71639;SDS011;60912;48.968;10.124;2023-03-01T06:29:32;29.45;;;13.27;;
71639;SDS011;60912;48.968;10.124;2023-03-01T06:34:54;27.27;;;12.70;;
71639;SDS011;60912;48.968;10.124;2023-03-01T06:40:34;28.48;;;12.15;;
71639;SDS011;60912;48.968;10.124;2023-03-01T06:43:11;23.67;;;11.15;;
71639;SDS011;60912;48.968;10.124;2023-03-01T06:46:11;23.75;;;12.35;;
71639;SDS011;60912;48.968;10.124;2023-03-01T06:49:06;26.33;;;11.73;;
71639;SDS011;60912;48.968;10.124;2023-03-01T06:51:52;27.33;;;11.65;;
71639;SDS011;60912;48.968;10.124;2023-03-01T06:58:31;28.98;;;13.63;;
71639;SDS011;60912;48.968;10.124;2023-03-01T07:01:43;23.85;;;11.43;;
71639;SDS011;60912;48.968;10.124;2023-03-01T07:04:09;19.40;;;10.63;;
71639;SDS011;60912;48.968;10.124;2023-03-01T07:06:44;20.58;;;11.63;;
71639;SDS011;60912;48.968;10.124;2023-03-01T07:09:13;22.58;;;12.52;;
71639;SDS011;60912;48.968;10.124;2023-03-01T07:11:52;20.77;;;12.00;;
71639;SDS011;60912;48.968;10.124;2023-03-01T07:14:24;20.83;;;11.25;;
71639;SDS011;60912;48.968;10.124;2023-03-01T07:17:09;24.23;;;14.53;;
71639;SDS011;60912;48.968;10.124;2023-03-01T07:19:56;18.23;;;11.23;;
71639;SDS011;60912;48.968;10.124;2023-03-01T07:22:22;21.33;;;11.57;;
71639;SDS011;60912;48.968;10.124;2023-03-01T07:24:47;24.17;;;11.20;;
71639;SDS011;60912;48.968;10.124;2023-03-01T07:27:13;21.38;;;11.38;;
71639;SDS011;60912;48.968;10.124;2023-03-01T07:29:41;20.70;;;11.83;;
71639;SDS011;60912;48.968;10.124;2023-03-01T07:32:15;21.90;;;11.63;;
71639;SDS011;60912;48.968;10.124;2023-03-01T07:34:41;21.48;;;11.10;;
71639;SDS011;60912;48.968;10.124;2023-03-01T07:37:06;20.97;;;11.60;;
71639;SDS011;60912;48.968;10.124;2023-03-01T07:39:35;22.63;;;12.80;;
71639;SDS011;60912;48.968;10.124;2023-03-01T07:42:08;23.15;;;12.40;;
71639;SDS011;60912;48.968;10.124;2023-03-01T07:44:36;21.77;;;11.05;;
71639;SDS011;60912;48.968;10.124;2023-03-01T07:47:05;22.57;;;12.03;;
71639;SDS011;60912;48.968;10.124;2023-03-01T07:52:59;24.88;;;11.35;;
71639;SDS011;60912;48.968;10.124;2023-03-01T07:55:25;23.47;;;11.73;;
71639;SDS011;60912;48.968;10.124;2023-03-01T07:57:53;22.92;;;13.73;;
71639;SDS011;60912;48.968;10.124;2023-03-01T08:03:07;24.05;;;11.50;;
71639;SDS011;60912;48.968;10.124;2023-03-01T08:08:31;28.50;;;11.98;;
71639;SDS011;60912;48.968;10.124;2023-03-01T08:10:58;23.47;;;11.47;;
71639;SDS011;60912;48.968;10.124;2023-03-01T08:13:25;27.27;;;13.73;;
71639;SDS011;60912;48.968;10.124;2023-03-01T08:15:51;24.92;;;12.98;;
71639;SDS011;60912;48.968;10.124;2023-03-01T08:18:20;22.85;;;12.68;;
71639;SDS011;60912;48.968;10.124;2023-03-01T08:20:49;26.00;;;13.02;;
71639;SDS011;60912;48.968;10.124;2023-03-01T08:23:14;29.23;;;13.27;;
71639;SDS011;60912;48.968;10.124;2023-03-01T08:25:47;26.43;;;12.67;;
71639;SDS011;60912;48.968;10.124;2023-03-01T08:28:55;24.70;;;12.32;;
71639;SDS011;60912;48.968;10.124;2023-03-01T08:31:52;27.58;;;17.73;;
71639;SDS011;60912;48.968;10.124;2023-03-01T08:34:17;28.97;;;13.80;;
71639;SDS011;60912;48.968;10.124;2023-03-01T08:37:08;29.02;;;14.02;;
71639;SDS011;60912;48.968;10.124;2023-03-01T08:39:50;26.42;;;13.27;;
71639;SDS011;60912;48.968;10.124;2023-03-01T08:42:15;23.13;;;13.53;;
71639;SDS011;60912;48.968;10.124;2023-03-01T08:44:41;22.83;;;11.35;;
71639;SDS011;60912;48.968;10.124;2023-03-01T08:47:08;24.83;;;12.33;;
71639;SDS011;60912;48.968;10.124;2023-03-01T08:49:34;23.80;;;13.15;;
71639;SDS011;60912;48.968;10.124;2023-03-01T08:52:14;32.63;;;12.57;;
71639;SDS011;60912;48.968;10.124;2023-03-01T08:54:39;28.23;;;13.20;;
71639;SDS011;60912;48.968;10.124;2023-03-01T08:57:05;24.63;;;14.03;;
71639;SDS011;60912;48.968;10.124;2023-03-01T08:59:30;24.60;;;12.90;;
71639;SDS011;60912;48.968;10.124;2023-03-01T09:02:00;26.85;;;13.05;;
71639;SDS011;60912;48.968;10.124;2023-03-01T09:04:39;24.75;;;12.40;;
71639;SDS011;60912;48.968;10.124;2023-03-01T09:07:16;20.27;;;11.18;;
71639;SDS011;60912;48.968;10.124;2023-03-01T09:09:49;28.10;;;15.23;;
71639;SDS011;60912;48.968;10.124;2023-03-01T09:12:30;22.55;;;12.93;;
71639;SDS011;60912;48.968;10.124;2023-03-01T09:15:05;27.13;;;12.77;;
71639;SDS011;60912;48.968;10.124;2023-03-01T09:22:47;19.95;;;11.18;;
71639;SDS011;60912;48.968;10.124;2023-03-01T09:25:12;26.53;;;14.67;;
71639;SDS011;60912;48.968;10.124;2023-03-01T09:27:50;24.23;;;14.02;;
71639;SDS011;60912;48.968;10.124;2023-03-01T09:30:16;23.73;;;12.98;;
71639;SDS011;60912;48.968;10.124;2023-03-01T09:32:45;26.67;;;13.10;;
71639;SDS011;60912;48.968;10.124;2023-03-01T09:35:11;28.37;;;13.47;;
71639;SDS011;60912;48.968;10.124;2023-03-01T09:37:45;26.67;;;14.20;;
71639;SDS011;60912;48.968;10.124;2023-03-01T09:40:16;24.48;;;13.65;;
71639;SDS011;60912;48.968;10.124;2023-03-01T09:42:48;23.98;;;13.60;;
71639;SDS011;60912;48.968;10.124;2023-03-01T09:45:37;25.27;;;12.90;;
71639;SDS011;60912;48.968;10.124;2023-03-01T09:48:13;22.90;;;12.87;;
71639;SDS011;60912;48.968;10.124;2023-03-01T09:51:12;23.98;;;13.63;;
71639;SDS011;60912;48.968;10.124;2023-03-01T09:53:57;25.45;;;16.40;;
71639;SDS011;60912;48.968;10.124;2023-03-01T10:02:39;23.53;;;11.33;;
71639;SDS011;60912;48.968;10.124;2023-03-01T10:11:02;24.92;;;13.40;;
71639;SDS011;60912;48.968;10.124;2023-03-01T10:16:23;21.57;;;10.03;;
71639;SDS011;60912;48.968;10.124;2023-03-01T10:19:02;22.02;;;11.70;;
71639;SDS011;60912;48.968;10.124;2023-03-01T10:21:32;19.50;;;10.90;;
71639;SDS011;60912;48.968;10.124;2023-03-01T10:24:16;25.95;;;11.80;;
71639;SDS011;60912;48.968;10.124;2023-03-01T10:29:39;19.30;;;11.17;;
71639;SDS011;60912;48.968;10.124;2023-03-01T10:32:13;19.38;;;10.73;;
71639;SDS011;60912;48.968;10.124;2023-03-01T10:34:38;16.27;;;8.60;;
71639;SDS011;60912;48.968;10.124;2023-03-01T10:37:20;20.80;;;11.03;;
71639;SDS011;60912;48.968;10.124;2023-03-01T10:40:28;20.35;;;11.98;;
71639;SDS011;60912;48.968;10.124;2023-03-01T10:43:26;27.50;;;9.73;;
71639;SDS011;60912;48.968;10.124;2023-03-01T10:56:55;24.38;;;12.68;;
71639;SDS011;60912;48.968;10.124;2023-03-01T11:02:32;20.25;;;11.95;;
71639;SDS011;60912;48.968;10.124;2023-03-01T11:05:17;23.60;;;10.48;;
71639;SDS011;60912;48.968;10.124;2023-03-01T11:07:57;21.77;;;13.47;;
71639;SDS011;60912;48.968;10.124;2023-03-01T11:10:47;21.88;;;14.50;;
71639;SDS011;60912;48.968;10.124;2023-03-01T11:16:47;19.73;;;11.00;;
71639;SDS011;60912;48.968;10.124;2023-03-01T11:19:34;21.77;;;12.15;;
71639;SDS011;60912;48.968;10.124;2023-03-01T11:24:59;21.25;;;9.88;;
71639;SDS011;60912;48.968;10.124;2023-03-01T11:27:40;22.98;;;11.25;;
71639;SDS011;60912;48.968;10.124;2023-03-01T11:36:32;19.77;;;11.13;;
71639;SDS011;60912;48.968;10.124;2023-03-01T11:39:20;21.48;;;11.48;;
71639;SDS011;60912;48.968;10.124;2023-03-01T11:42:15;16.20;;;8.00;;
71639;SDS011;60912;48.968;10.124;2023-03-01T11:58:16;23.27;;;11.38;;
71639;SDS011;60912;48.968;10.124;2023-03-01T12:32:11;27.88;;;14.57;;
71639;SDS011;60912;48.968;10.124;2023-03-01T12:54:38;20.00;;;11.20;;
71639;SDS011;60912;48.968;10.124;2023-03-01T13:15:27;17.50;;;9.98;;
71639;SDS011;60912;48.968;10.124;2023-03-01T13:29:15;18.35;;;9.88;;
71639;SDS011;60912;48.968;10.124;2023-03-01T13:44:57;17.70;;;9.75;;
71639;SDS011;60912;48.968;10.124;2023-03-01T13:48:24;20.08;;;10.15;;
71639;SDS011;60912;48.968;10.124;2023-03-01T13:54:48;18.85;;;9.98;;
71639;SDS011;60912;48.968;10.124;2023-03-01T14:01:18;22.15;;;10.70;;
71639;SDS011;60912;48.968;10.124;2023-03-01T14:20:21;22.30;;;12.15;;
71639;SDS011;60912;48.968;10.124;2023-03-01T14:26:08;18.92;;;10.90;;
71639;SDS011;60912;48.968;10.124;2023-03-01T14:28:41;18.33;;;9.67;;
71639;SDS011;60912;48.968;10.124;2023-03-01T14:47:48;18.55;;;8.65;;
71639;SDS011;60912;48.968;10.124;2023-03-01T14:51:04;19.88;;;10.00;;
71639;SDS011;60912;48.968;10.124;2023-03-01T14:53:57;26.05;;;10.70;;
71639;SDS011;60912;48.968;10.124;2023-03-01T14:57:20;15.80;;;9.45;;
71639;SDS011;60912;48.968;10.124;2023-03-01T14:59:59;19.53;;;10.40;;
71639;SDS011;60912;48.968;10.124;2023-03-01T15:02:46;20.52;;;11.48;;
71639;SDS011;60912;48.968;10.124;2023-03-01T15:05:36;22.73;;;11.85;;
71639;SDS011;60912;48.968;10.124;2023-03-01T15:18:50;20.98;;;12.73;;
71639;SDS011;60912;48.968;10.124;2023-03-01T15:21:48;16.42;;;9.30;;
71639;SDS011;60912;48.968;10.124;2023-03-01T15:24:26;18.77;;;10.48;;
71639;SDS011;60912;48.968;10.124;2023-03-01T15:52:51;19.13;;;9.68;;
71639;SDS011;60912;48.968;10.124;2023-03-01T15:55:43;19.35;;;10.88;;
71639;SDS011;60912;48.968;10.124;2023-03-01T15:58:20;19.83;;;12.05;;
71639;SDS011;60912;48.968;10.124;2023-03-01T16:07:26;18.63;;;10.63;;
71639;SDS011;60912;48.968;10.124;2023-03-01T16:09:52;19.38;;;9.55;;
71639;SDS011;60912;48.968;10.124;2023-03-01T16:12:32;16.52;;;9.80;;
71639;SDS011;60912;48.968;10.124;2023-03-01T16:15:13;20.23;;;9.87;;
71639;SDS011;60912;48.968;10.124;2023-03-01T16:18:02;16.55;;;9.50;;
71639;SDS011;60912;48.968;10.124;2023-03-01T16:20:39;19.40;;;10.32;;
71639;SDS011;60912;48.968;10.124;2023-03-01T16:23:16;19.35;;;10.18;;
71639;SDS011;60912;48.968;10.124;2023-03-01T16:26:03;17.27;;;9.27;;
71639;SDS011;60912;48.968;10.124;2023-03-01T16:28:54;18.60;;;11.18;;
71639;SDS011;60912;48.968;10.124;2023-03-01T16:31:49;18.48;;;10.50;;
71639;SDS011;60912;48.968;10.124;2023-03-01T16:34:32;19.20;;;9.95;;
71639;SDS011;60912;48.968;10.124;2023-03-01T16:37:45;18.02;;;10.30;;
71639;SDS011;60912;48.968;10.124;2023-03-01T16:40:28;16.67;;;9.30;;
71639;SDS011;60912;48.968;10.124;2023-03-01T16:43:19;19.13;;;10.18;;
71639;SDS011;60912;48.968;10.124;2023-03-01T16:49:05;20.10;;;10.07;;
71639;SDS011;60912;48.968;10.124;2023-03-01T16:51:40;16.77;;;9.05;;
71639;SDS011;60912;48.968;10.124;2023-03-01T16:54:37;17.23;;;9.27;;
71639;SDS011;60912;48.968;10.124;2023-03-01T16:57:04;19.23;;;10.10;;
71639;SDS011;60912;48.968;10.124;2023-03-01T16:59:30;19.63;;;9.50;;
71639;SDS011;60912;48.968;10.124;2023-03-01T17:05:42;21.77;;;9.95;;
71639;SDS011;60912;48.968;10.124;2023-03-01T17:08:49;20.98;;;10.07;;
71639;SDS011;60912;48.968;10.124;2023-03-01T17:11:35;19.48;;;10.65;;
71639;SDS011;60912;48.968;10.124;2023-03-01T17:14:37;18.93;;;10.03;;
71639;SDS011;60912;48.968;10.124;2023-03-01T17:17:09;19.63;;;10.35;;
71639;SDS011;60912;48.968;10.124;2023-03-01T17:29:27;18.90;;;10.20;;
71639;SDS011;60912;48.968;10.124;2023-03-01T17:32:17;20.75;;;11.25;;
71639;SDS011;60912;48.968;10.124;2023-03-01T17:34:58;20.38;;;11.20;;
71639;SDS011;60912;48.968;10.124;2023-03-01T17:37:55;21.65;;;10.88;;
71639;SDS011;60912;48.968;10.124;2023-03-01T17:40:42;20.85;;;11.55;;
71639;SDS011;60912;48.968;10.124;2023-03-01T17:43:48;28.60;;;11.40;;
71639;SDS011;60912;48.968;10.124;2023-03-01T17:52:06;20.48;;;11.52;;
71639;SDS011;60912;48.968;10.124;2023-03-01T17:54:34;24.48;;;12.70;;
71639;SDS011;60912;48.968;10.124;2023-03-01T17:57:23;19.27;;;10.77;;
71639;SDS011;60912;48.968;10.124;2023-03-01T17:59:52;21.23;;;12.23;;
71639;SDS011;60912;48.968;10.124;2023-03-01T18:02:17;22.48;;;11.90;;
71639;SDS011;60912;48.968;10.124;2023-03-01T18:05:26;21.67;;;11.57;;
71639;SDS011;60912;48.968;10.124;2023-03-01T18:08:28;20.87;;;10.43;;
71639;SDS011;60912;48.968;10.124;2023-03-01T18:11:09;25.10;;;12.13;;
71639;SDS011;60912;48.968;10.124;2023-03-01T18:13:43;23.33;;;11.70;;
71639;SDS011;60912;48.968;10.124;2023-03-01T18:19:33;22.98;;;11.18;;
71639;SDS011;60912;48.968;10.124;2023-03-01T18:22:07;22.37;;;11.00;;
71639;SDS011;60912;48.968;10.124;2023-03-01T18:25:02;22.88;;;12.07;;
71639;SDS011;60912;48.968;10.124;2023-03-01T18:27:54;22.00;;;11.93;;
71639;SDS011;60912;48.968;10.124;2023-03-01T18:30:26;21.50;;;12.18;;
71639;SDS011;60912;48.968;10.124;2023-03-01T18:32:57;22.27;;;11.63;;
71639;SDS011;60912;48.968;10.124;2023-03-01T18:35:26;22.83;;;12.60;;
71639;SDS011;60912;48.968;10.124;2023-03-01T18:38:22;21.67;;;11.90;;
71639;SDS011;60912;48.968;10.124;2023-03-01T18:47:10;24.50;;;11.50;;
71639;SDS011;60912;48.968;10.124;2023-03-01T18:49:54;23.42;;;12.07;;
71639;SDS011;60912;48.968;10.124;2023-03-01T18:52:20;25.83;;;13.50;;
71639;SDS011;60912;48.968;10.124;2023-03-01T18:54:58;22.40;;;11.63;;
71639;SDS011;60912;48.968;10.124;2023-03-01T19:05:56;23.60;;;13.82;;
71639;SDS011;60912;48.968;10.124;2023-03-01T19:29:39;27.02;;;12.63;;
71639;SDS011;60912;48.968;10.124;2023-03-01T19:32:34;24.23;;;13.18;;
71639;SDS011;60912;48.968;10.124;2023-03-01T19:35:16;24.70;;;12.63;;
71639;SDS011;60912;48.968;10.124;2023-03-01T19:38:06;28.00;;;12.98;;
71639;SDS011;60912;48.968;10.124;2023-03-01T19:40:43;24.67;;;12.97;;
71639;SDS011;60912;48.968;10.124;2023-03-01T19:47:08;23.63;;;13.00;;
71639;SDS011;60912;48.968;10.124;2023-03-01T19:53:32;26.25;;;14.70;;
71639;SDS011;60912;48.968;10.124;2023-03-01T19:56:07;24.63;;;12.87;;
71639;SDS011;60912;48.968;10.124;2023-03-01T19:58:39;25.83;;;13.55;;
71639;SDS011;60912;48.968;10.124;2023-03-01T20:01:15;24.85;;;14.27;;
71639;SDS011;60912;48.968;10.124;2023-03-01T20:04:02;26.95;;;13.27;;
71639;SDS011;60912;48.968;10.124;2023-03-01T20:06:38;26.90;;;13.10;;
71639;SDS011;60912;48.968;10.124;2023-03-01T20:09:14;27.02;;;14.30;;
71639;SDS011;60912;48.968;10.124;2023-03-01T20:11:43;29.80;;;16.48;;
71639;SDS011;60912;48.968;10.124;2023-03-01T20:14:41;25.13;;;14.38;;
71639;SDS011;60912;48.968;10.124;2023-03-01T20:17:19;27.42;;;13.88;;
71639;SDS011;60912;48.968;10.124;2023-03-01T20:19:52;29.97;;;14.07;;
71639;SDS011;60912;48.968;10.124;2023-03-01T20:22:43;24.42;;;13.73;;
71639;SDS011;60912;48.968;10.124;2023-03-01T20:25:12;27.60;;;12.75;;
71639;SDS011;60912;48.968;10.124;2023-03-01T20:27:47;25.80;;;12.85;;
71639;SDS011;60912;48.968;10.124;2023-03-01T20:30:24;25.63;;;13.48;;
71639;SDS011;60912;48.968;10.124;2023-03-01T20:32:49;26.40;;;13.83;;
71639;SDS011;60912;48.968;10.124;2023-03-01T20:35:25;26.50;;;14.15;;
71639;SDS011;60912;48.968;10.124;2023-03-01T20:38:13;28.27;;;14.03;;
71639;SDS011;60912;48.968;10.124;2023-03-01T20:41:08;27.40;;;13.75;;
71639;SDS011;60912;48.968;10.124;2023-03-01T20:43:40;28.25;;;14.55;;
71639;SDS011;60912;48.968;10.124;2023-03-01T20:46:14;28.60;;;13.23;;
71639;SDS011;60912;48.968;10.124;2023-03-01T20:48:42;26.33;;;13.90;;
71639;SDS011;60912;48.968;10.124;2023-03-01T20:51:08;27.23;;;13.73;;
71639;SDS011;60912;48.968;10.124;2023-03-01T20:53:37;25.45;;;13.10;;
71639;SDS011;60912;48.968;10.124;2023-03-01T20:56:06;26.55;;;13.55;;
71639;SDS011;60912;48.968;10.124;2023-03-01T20:58:41;25.83;;;13.80;;
71639;SDS011;60912;48.968;10.124;2023-03-01T21:01:27;28.40;;;13.45;;
71639;SDS011;60912;48.968;10.124;2023-03-01T21:03:56;26.73;;;13.52;;
71639;SDS011;60912;48.968;10.124;2023-03-01T21:06:24;28.42;;;13.57;;
71639;SDS011;60912;48.968;10.124;2023-03-01T21:08:50;30.63;;;15.32;;
71639;SDS011;60912;48.968;10.124;2023-03-01T21:11:16;28.17;;;13.10;;
71639;SDS011;60912;48.968;10.124;2023-03-01T21:16:49;26.83;;;13.93;;
71639;SDS011;60912;48.968;10.124;2023-03-01T21:19:35;29.10;;;14.00;;
71639;SDS011;60912;48.968;10.124;2023-03-01T21:24:59;27.90;;;14.37;;
71639;SDS011;60912;48.968;10.124;2023-03-01T21:27:30;26.10;;;14.65;;
71639;SDS011;60912;48.968;10.124;2023-03-01T21:30:36;28.10;;;14.18;;
71639;SDS011;60912;48.968;10.124;2023-03-01T21:33:13;28.80;;;14.15;;
71639;SDS011;60912;48.968;10.124;2023-03-01T21:36:32;28.60;;;14.30;;
71639;SDS011;60912;48.968;10.124;2023-03-01T21:38:50;29.20;;;16.40;;
71639;SDS011;60912;48.968;10.124;2023-03-01T21:44:10;28.70;;;14.75;;
71639;SDS011;60912;48.968;10.124;2023-03-01T21:49:21;29.52;;;15.18;;
71639;SDS011;60912;48.968;10.124;2023-03-01T21:51:53;28.17;;;14.63;;
71639;SDS011;60912;48.968;10.124;2023-03-01T21:54:28;27.88;;;14.15;;
71639;SDS011;60912;48.968;10.124;2023-03-01T21:57:04;26.98;;;13.45;;
71639;SDS011;60912;48.968;10.124;2023-03-01T21:59:33;26.37;;;13.63;;
71639;SDS011;60912;48.968;10.124;2023-03-01T22:01:58;26.67;;;14.43;;
71639;SDS011;60912;48.968;10.124;2023-03-01T22:04:45;30.50;;;14.57;;
71639;SDS011;60912;48.968;10.124;2023-03-01T22:07:24;31.47;;;14.90;;
71639;SDS011;60912;48.968;10.124;2023-03-01T22:20:36;29.20;;;13.85;;
71639;SDS011;60912;48.968;10.124;2023-03-01T22:23:25;30.40;;;13.13;;
71639;SDS011;60912;48.968;10.124;2023-03-01T22:29:43;28.95;;;15.02;;
71639;SDS011;60912;48.968;10.124;2023-03-01T22:32:16;28.30;;;14.52;;
71639;SDS011;60912;48.968;10.124;2023-03-01T22:37:41;29.93;;;15.67;;
71639;SDS011;60912;48.968;10.124;2023-03-01T22:40:16;29.40;;;13.40;;
71639;SDS011;60912;48.968;10.124;2023-03-01T22:42:44;30.80;;;14.65;;
71639;SDS011;60912;48.968;10.124;2023-03-01T22:45:13;29.02;;;14.52;;